Time;durP1;ratioP1;P1;durP2;ratioP2;P2;SDS_P1;SDS_P2;PMS_P1;PMS_P2;Temp;Humidity;BMP_temperature;BMP_pressure;BME280_temperature;BME280_humidity;BME280_pressure;Samples;Min_cycle;Max_cycle;Signal;HPM_P1;HPM_P2
2023/06/22 00:04:04;;;;;;;5.75;4.13;;;;;;;;;;12587393;23;20197;-84
2023/06/22 00:09:26;;;;;;;7.50;4.50;;;;;;;;;;12607160;23;20281;-84
2023/06/22 00:14:47;;;;;;;6.85;4.18;;;;;;;;;;12627882;23;20242;-84
2023/06/22 00:20:10;;;;;;;5.78;4.53;;;;;;;;;;12627797;23;20366;-85
2023/06/22 00:25:31;;;;;;;7.45;4.70;;;;;;;;;;12713799;23;20193;-85
2023/06/22 00:30:52;;;;;;;7.32;5.10;;;19.30;1.00;;;;;;12628450;23;20189;-85
2023/06/22 00:36:16;;;;;;;7.82;5.03;;;19.30;1.00;;;;;;12608134;23;20219;-85
2023/06/22 00:41:37;;;;;;;9.50;4.45;;;19.20;99.90;;;;;;12607297;23;20178;-85
2023/06/22 00:47:00;;;;;;;6.40;4.80;;;19.10;1.00;;;;;;12607666;23;20198;-85
2023/06/22 00:52:26;;;;;;;6.65;4.88;;;18.90;1.00;;;;;;12607659;23;20349;-83
2023/06/22 00:57:49;;;;;;;7.05;5.10;;;18.80;1.00;;;;;;12587569;23;20198;-84
2023/06/22 01:03:10;;;;;;;10.45;5.10;;;18.80;1.00;;;;;;12627128;23;20191;-83
2023/06/22 01:08:51;;;;;;;8.23;4.40;;;18.70;99.90;;;;;;12606144;23;20665;-83
2023/06/22 01:14:20;;;;;;;6.93;4.43;;;18.60;99.90;;;;;;12586736;23;20171;-84
2023/06/22 01:19:55;;;;;;;9.93;5.32;;;18.60;1.00;;;;;;12627470;23;20193;-84
2023/06/22 01:25:26;;;;;;;9.80;4.88;;;18.50;1.00;;;;;;12586495;23;20182;-84
2023/06/22 01:30:49;;;;;;;7.13;5.15;;;18.40;1.00;;;;;;12607060;23;20154;-85
2023/06/22 01:36:11;;;;;;;5.70;4.53;;;18.40;17.00;;;;;;12585951;23;20171;-84
2023/06/22 01:41:36;;;;;;;8.60;5.38;;;18.40;99.90;;;;;;12586791;23;20175;-85
2023/06/22 01:46:58;;;;;;;8.10;4.72;;;18.50;99.90;;;;;;12586170;23;20199;-84
2023/06/22 01:52:21;;;;;;;11.60;5.95;;;18.50;99.90;;;;;;12586072;23;20174;-85
2023/06/22 01:57:42;;;;;;;7.50;4.80;;;18.50;99.90;;;;;;12606487;23;20182;-85
2023/06/22 02:03:18;;;;;;;10.32;5.80;;;18.50;99.90;;;;;;12606411;23;20190;-84
2023/06/22 02:08:49;;;;;;;7.57;5.57;;;18.60;99.90;;;;;;12626793;23;20206;-84
2023/06/22 02:14:11;;;;;;;8.70;5.53;;;18.50;99.90;;;;;;12627006;23;20170;-84
2023/06/22 02:19:36;;;;;;;7.25;4.80;;;18.50;99.90;;;;;;12606293;23;20239;-84
2023/06/22 02:24:58;;;;;;;7.57;4.97;;;18.60;99.90;;;;;;12608946;23;20174;-83
2023/06/22 02:30:19;;;;;;;11.15;5.22;;;18.60;99.90;;;;;;12608463;23;20415;-83
2023/06/22 02:35:45;;;;;;;7.65;5.15;;;18.60;99.90;;;;;;12588138;23;20174;-83
2023/06/22 02:41:07;;;;;;;6.05;5.22;;;18.60;99.90;;;;;;12588306;23;20198;-83
2023/06/22 02:46:28;;;;;;;10.00;5.28;;;18.60;99.90;;;;;;12587873;23;20199;-83
2023/06/22 02:51:50;;;;;;;9.55;5.53;;;18.70;99.90;;;;;;12588366;23;20186;-83
2023/06/22 02:57:14;;;;;;;8.32;5.28;;;18.70;99.90;;;;;;12607866;23;20181;-83
2023/06/22 03:02:37;;;;;;;8.98;5.93;;;18.80;99.90;;;;;;12607370;23;20199;-83
2023/06/22 03:07:58;;;;;;;11.70;5.55;;;18.80;99.90;;;;;;12587887;23;20205;-84
2023/06/22 03:13:22;;;;;;;11.18;5.35;;;18.90;99.90;;;;;;12608737;23;20353;-83
2023/06/22 03:18:43;;;;;;;14.02;5.50;;;18.90;99.90;;;;;;12608062;23;20175;-84
2023/06/22 03:24:07;;;;;;;8.63;5.63;;;18.80;99.90;;;;;;12587953;23;20399;-83
2023/06/22 03:29:29;;;;;;;8.88;5.38;;;18.90;99.90;;;;;;12607589;23;20373;-83
2023/06/22 03:34:51;;;;;;;10.75;5.97;;;18.90;99.90;;;;;;12587694;23;20480;-83
2023/06/22 03:40:13;;;;;;;11.40;4.93;;;18.90;99.90;;;;;;12608622;23;20163;-85
2023/06/22 03:45:34;;;;;;;9.20;5.80;;;18.90;99.90;;;;;;12608136;23;20221;-85
2023/06/22 03:51:00;;;;;;;8.77;5.70;;;18.80;99.90;;;;;;12587796;23;20170;-84
2023/06/22 03:56:21;;;;;;;9.98;5.38;;;18.80;99.90;;;;;;12607232;23;20220;-84
2023/06/22 04:01:42;;;;;;;6.20;4.90;;;18.80;99.90;;;;;;12606288;23;20243;-83
2023/06/22 04:07:04;;;;;;;9.13;4.97;;;18.90;99.90;;;;;;12587203;23;20218;-83
2023/06/22 04:12:25;;;;;;;11.10;5.97;;;18.90;99.90;;;;;;12627861;23;20205;-83
2023/06/22 04:17:46;;;;;;;7.40;5.20;;;19.00;99.90;;;;;;12627237;23;20518;-83
2023/06/22 04:23:08;;;;;;;6.28;4.57;;;19.00;99.90;;;;;;12628051;23;20162;-83
2023/06/22 04:28:30;;;;;;;7.80;4.97;;;19.10;99.90;;;;;;12587377;23;20186;-84
2023/06/22 04:33:51;;;;;;;7.70;5.57;;;19.20;99.90;;;;;;12627258;23;20170;-83
2023/06/22 04:39:12;;;;;;;8.10;5.43;;;19.20;99.90;;;;;;12607331;23;20166;-83
2023/06/22 04:44:33;;;;;;;9.60;5.20;;;19.10;99.90;;;;;;12692733;23;20232;-83
2023/06/22 04:49:55;;;;;;;6.13;4.70;;;19.10;99.90;;;;;;12586862;23;20198;-84
2023/06/22 04:55:18;;;;;;;6.50;4.00;;;19.20;99.90;;;;;;12606812;23;20174;-84
2023/06/22 05:00:40;;;;;;;4.90;4.07;;;19.20;99.90;;;;;;12586281;23;20206;-84
2023/06/22 05:06:01;;;;;;;6.57;3.78;;;19.30;99.90;;;;;;12607086;23;20183;-85
2023/06/22 05:11:23;;;;;;;10.00;4.45;;;19.50;99.90;;;;;;12585866;23;20174;-82
2023/06/22 05:16:45;;;;;;;6.00;4.18;;;19.70;99.90;;;;;;12626500;23;20167;-82
2023/06/22 05:22:06;;;;;;;8.38;4.53;;;19.70;99.90;;;;;;12606590;23;20354;-82
2023/06/22 05:27:28;;;;;;;5.85;3.95;;;19.60;1.00;;;;;;12585833;23;20198;-82
2023/06/22 05:32:49;;;;;;;5.93;4.10;;;19.70;1.00;;;;;;12606470;23;20189;-83
2023/06/22 05:38:10;;;;;;;9.85;4.32;;;19.70;99.90;;;;;;12605769;23;20218;-82
2023/06/22 05:43:32;;;;;;;6.28;3.72;;;19.80;99.90;;;;;;12605423;23;20469;-83
2023/06/22 05:48:53;;;;;;;5.60;3.13;;;19.80;1.00;;;;;;12605736;23;20240;-83
2023/06/22 05:54:17;;;;;;;7.75;3.47;;;19.80;99.90;;;;;;12584854;23;20347;-82
2023/06/22 05:59:39;;;;;;;5.90;3.47;;;19.90;1.00;;;;;;12607310;23;20240;-82
2023/06/22 06:05:02;;;;;;;10.98;3.33;;;20.10;1.00;;;;;;12587879;23;20198;-82
2023/06/22 06:10:23;;;;;;;6.78;3.03;;;20.30;1.00;;;;;;12607696;23;20199;-83
2023/06/22 06:15:45;;;;;;;7.20;2.95;;;20.50;99.90;;;;;;12628801;23;20331;-83
2023/06/22 06:21:06;;;;;;;4.25;2.70;;;20.60;1.00;;;;;;12628262;23;20166;-83
2023/06/22 06:26:29;;;;;;;5.03;2.88;;;20.70;1.00;;;;;;12627555;23;20377;-83
2023/06/22 06:31:50;;;;;;;4.78;2.80;;;20.90;1.00;;;;;;12627894;23;20343;-83
2023/06/22 06:37:12;;;;;;;5.50;3.15;;;21.20;1.00;;;;;;12608297;23;20453;-83
2023/06/22 06:42:33;;;;;;;4.85;2.45;;;21.40;99.90;;;;;;12734678;23;20190;-83
2023/06/22 06:47:55;;;;;;;5.18;2.92;;;21.80;99.90;;;;;;12607985;23;20198;-83
2023/06/22 06:53:17;;;;;;;8.20;3.20;;;22.30;35.00;;;;;;12627990;23;20359;-83
2023/06/22 06:58:42;;;;;;;9.57;3.00;;;22.70;1.00;;;;;;12627380;23;20407;-83
2023/06/22 07:04:03;;;;;;;6.15;2.83;;;22.90;1.00;;;;;;12607332;23;20177;-83
2023/06/22 07:09:24;;;;;;;4.68;2.80;;;23.50;99.90;;;;;;12587244;23;20269;-83
2023/06/22 07:14:46;;;;;;;5.03;2.40;;;23.80;1.00;;;;;;12587488;23;20167;-83
2023/06/22 07:20:10;;;;;;;5.05;2.17;;;24.40;1.00;;;;;;12587270;23;20175;-83
2023/06/22 07:25:31;;;;;;;5.05;2.90;;;24.60;1.00;;;;;;12627853;23;20170;-82
2023/06/22 07:30:54;;;;;;;4.97;2.50;;;24.60;1.00;;;;;;12594129;23;20210;-84
2023/06/22 07:36:17;;;;;;;3.90;2.40;;;25.00;1.00;;;;;;12600717;23;20197;-84
2023/06/22 07:41:40;;;;;;;5.65;1.75;;;25.30;1.00;;;;;;12601865;23;20174;-82
2023/06/22 07:47:02;;;;;;;5.70;2.28;;;25.70;99.90;;;;;;12578326;23;20244;-81
2023/06/22 07:52:25;;;;;;;4.80;2.00;;;25.90;99.90;;;;;;12620251;23;20473;-89
2023/06/22 07:57:49;;;;;;;6.30;2.47;;;26.00;99.90;;;;;;12622330;23;20236;-83
2023/06/22 08:03:10;;;;;;;3.58;2.80;;;26.00;99.90;;;;;;12621064;23;20198;-81
2023/06/22 08:08:32;;;;;;;3.42;2.17;;;26.30;99.90;;;;;;12579252;23;20464;-82
2023/06/22 08:13:55;;;;;;;4.63;2.88;;;26.60;99.90;;;;;;12578896;23;20187;-84
2023/06/22 08:19:16;;;;;;;4.47;2.58;;;26.80;99.90;;;;;;12579184;23;20378;-84
2023/06/22 08:24:38;;;;;;;4.55;2.55;;;27.20;99.90;;;;;;12599658;23;20174;-86
2023/06/22 08:30:00;;;;;;;2.20;1.80;;;27.20;99.90;;;;;;12581174;23;20293;-83
2023/06/22 08:35:24;;;;;;;2.70;1.90;;;27.40;99.90;;;;;;12621049;23;20238;-82
2023/06/22 08:40:46;;;;;;;7.07;2.05;;;27.50;99.90;;;;;;12601134;23;20179;-83
2023/06/22 08:46:08;;;;;;;4.82;2.60;;;27.70;99.90;;;;;;12599785;23;20529;-82
2023/06/22 08:51:29;;;;;;;4.38;2.22;;;27.60;99.90;;;;;;12620231;23;20190;-82
2023/06/22 08:56:51;;;;;;;4.85;2.15;;;27.70;99.90;;;;;;12581885;23;20171;-82
2023/06/22 09:02:13;;;;;;;5.82;2.05;;;28.10;1.00;;;;;;12620288;23;20186;-83
2023/06/22 09:07:34;;;;;;;3.25;2.15;;;28.50;1.00;;;;;;12600435;23;20214;-84
2023/06/22 09:12:56;;;;;;;3.92;1.77;;;28.60;99.90;;;;;;12599433;23;20512;-83
2023/06/22 09:18:18;;;;;;;8.23;2.28;;;28.40;99.90;;;;;;12581503;23;20228;-84
2023/06/22 09:23:39;;;;;;;3.15;2.10;;;28.60;99.90;;;;;;12620713;23;20504;-84
2023/06/22 09:29:00;;;;;;;6.03;2.25;;;28.80;99.90;;;;;;12579546;23;20435;-83
2023/06/22 09:34:21;;;;;;;3.25;1.92;;;28.70;99.90;;;;;;12603016;23;20481;-85
2023/06/22 09:39:43;;;;;;;5.95;2.20;;;;;;;;;;12582742;23;20181;-84
2023/06/22 09:45:06;;;;;;;3.92;2.20;;;;;;;;;;12602730;23;20529;-83
2023/06/22 09:50:27;;;;;;;8.32;2.40;;;;;;;;;;12622480;23;20376;-80
2023/06/22 09:55:49;;;;;;;4.30;1.88;;;29.10;99.90;;;;;;12622216;23;20220;-82
2023/06/22 10:01:11;;;;;;;3.08;1.88;;;28.70;99.90;;;;;;12622960;23;20194;-79
2023/06/22 10:06:32;;;;;;;3.20;1.77;;;28.50;99.90;;;;;;12620885;23;20190;-79
2023/06/22 10:11:53;;;;;;;3.15;1.80;;;28.60;99.90;;;;;;12601215;23;20206;-82
2023/06/22 10:17:14;;;;;;;7.85;1.90;;;28.30;99.90;;;;;;12581859;23;20171;-82
2023/06/22 10:22:36;;;;;;;3.40;2.10;;;28.20;99.90;;;;;;12623197;23;20175;-80
2023/06/22 10:27:57;;;;;;;4.05;1.77;;;28.50;99.90;;;;;;12622738;23;20202;-87
2023/06/22 10:33:18;;;;;;;2.15;1.73;;;28.40;99.90;;;;;;12581857;23;20171;-79
2023/06/22 10:38:39;;;;;;;3.55;2.08;;;28.50;99.90;;;;;;12623563;23;20175;-79
2023/06/22 10:44:00;;;;;;;3.83;2.05;;;28.40;99.90;;;;;;12600791;23;20238;-79
2023/06/22 10:49:22;;;;;;;4.25;2.03;;;28.20;99.90;;;;;;12621330;23;20293;-78
2023/06/22 10:54:43;;;;;;;3.30;1.58;;;28.90;99.90;;;;;;12622619;23;20204;-78
2023/06/22 11:00:06;;;;;;;2.83;2.00;;;29.30;99.90;;;;;;12620637;23;20213;-79
2023/06/22 11:05:27;;;;;;;2.15;1.70;;;30.00;99.90;;;;;;12622295;23;20171;-79
2023/06/22 11:10:50;;;;;;;3.97;2.20;;;30.40;99.90;;;;;;12622531;23;20191;-84
2023/06/22 11:16:11;;;;;;;4.63;1.60;;;30.10;99.90;;;;;;12622234;23;20290;-80
2023/06/22 11:21:33;;;;;;;2.42;1.50;;;29.70;99.90;;;;;;12622789;23;20342;-84
2023/06/22 11:26:54;;;;;;;3.55;1.65;;;29.30;91.00;;;;;;12621088;23;20232;-79
2023/06/22 11:32:16;;;;;;;4.22;1.70;;;29.40;42.30;;;;;;12621198;23;20358;-78
2023/06/22 11:37:37;;;;;;;1.95;1.70;;;29.90;33.70;;;;;;12728709;23;20186;-79
2023/06/22 11:42:58;;;;;;;2.22;1.65;;;30.30;68.90;;;;;;12600808;23;20178;-78
2023/06/22 11:48:20;;;;;;;1.67;1.52;;;30.10;66.00;;;;;;12621425;23;20206;-78
2023/06/22 11:53:41;;;;;;;1.90;1.80;;;29.50;57.30;;;;;;12622495;23;20358;-78
2023/06/22 11:59:02;;;;;;;4.80;1.88;;;29.80;32.70;;;;;;12600282;23;20389;-83
2023/06/22 12:04:23;;;;;;;2.40;1.80;;;29.60;27.30;;;;;;12622140;23;20477;-80
2023/06/22 12:09:45;;;;;;;4.55;1.85;;;29.80;26.20;;;;;;12581305;23;20207;-80
2023/06/22 12:15:07;;;;;;;4.93;1.63;;;30.20;20.90;;;;;;12601924;23;20163;-81
2023/06/22 12:20:29;;;;;;;1.55;1.45;;;30.40;14.60;;;;;;12621010;23;20409;-80
2023/06/22 12:25:50;;;;;;;3.35;2.25;;;30.30;14.60;;;;;;12620174;23;20182;-79
2023/06/22 12:31:12;;;;;;;8.43;1.83;;;30.60;14.10;;;;;;12621524;23;20236;-80
2023/06/22 12:36:34;;;;;;;3.33;2.15;;;30.40;22.20;;;;;;12619510;23;20249;-80
2023/06/22 12:41:55;;;;;;;3.00;1.58;;;30.40;17.90;;;;;;12580591;23;20671;-80
2023/06/22 12:47:17;;;;;;;1.95;1.50;;;30.50;21.30;;;;;;12621430;23;20205;-82
2023/06/22 12:59:08;;;;;;;4.00;1.55;;;30.40;8.20;;;;;;12620995;23;20360;-84
2023/06/22 13:04:29;;;;;;;3.38;1.70;;;30.30;8.70;;;;;;12617111;23;20186;-81
2023/06/22 13:09:51;;;;;;;5.93;1.90;;;30.30;9.60;;;;;;12620690;23;20546;-80
2023/06/22 13:15:12;;;;;;;2.50;1.40;;;30.00;9.90;;;;;;12601397;23;20405;-80
2023/06/22 13:20:34;;;;;;;2.55;1.70;;;30.00;7.20;;;;;;12600142;23;20412;-81
2023/06/22 13:25:55;;;;;;;2.67;2.00;;;30.10;6.60;;;;;;12617933;23;20514;-80
2023/06/22 13:31:16;;;;;;;12.70;2.30;;;30.30;3.50;;;;;;12618485;23;20194;-80
2023/06/22 13:36:38;;;;;;;6.03;1.85;;;30.20;1.00;;;;;;12616993;23;20364;-80
2023/06/22 13:41:59;;;;;;;5.63;1.73;;;30.10;1.00;;;;;;12621054;23;20159;-81
2023/06/22 13:47:21;;;;;;;3.00;1.80;;;30.10;2.50;;;;;;12579291;23;20289;-82
2023/06/22 13:52:42;;;;;;;10.90;1.73;;;30.00;1.40;;;;;;12620625;23;20457;-82
2023/06/22 13:58:03;;;;;;;3.00;1.50;;;29.80;1.00;;;;;;12601199;23;20178;-79
2023/06/22 14:03:24;;;;;;;3.20;2.40;;;29.70;1.00;;;;;;12598636;23;20367;-80
2023/06/22 14:08:46;;;;;;;3.72;1.83;;;29.70;1.00;;;;;;12620027;23;20435;-81
2023/06/22 14:14:07;;;;;;;1.80;1.65;;;29.50;1.00;;;;;;12579252;23;20340;-80
2023/06/22 14:19:28;;;;;;;7.32;1.70;;;29.30;1.00;;;;;;12600762;23;20170;-81
2023/06/22 14:24:49;;;;;;;6.07;1.50;;;29.40;1.00;;;;;;12622443;23;20197;-82
2023/06/22 14:30:11;;;;;;;2.05;1.55;;;29.20;1.00;;;;;;12622784;23;20258;-81
2023/06/22 14:35:32;;;;;;;1.98;1.60;;;29.10;1.00;;;;;;12621866;23;20247;-81
2023/06/22 14:40:54;;;;;;;4.72;1.58;;;29.00;1.00;;;;;;12623429;23;20437;-82
2023/06/22 14:46:20;;;;;;;2.30;1.63;;;28.90;1.00;;;;;;12621301;23;20412;-85
2023/06/22 14:51:42;;;;;;;8.57;1.73;;;28.90;1.00;;;;;;12622485;23;20240;-80
2023/06/22 14:57:03;;;;;;;4.63;1.80;;;28.80;1.00;;;;;;12622317;23;20171;-83
2023/06/22 15:02:24;;;;;;;3.97;1.88;;;28.60;1.00;;;;;;12621453;23;20497;-82
2023/06/22 15:07:46;;;;;;;3.58;1.70;;;28.50;1.00;;;;;;12623543;23;20248;-80
2023/06/22 15:13:07;;;;;;;1.30;1.20;;;28.40;29.10;;;;;;12606706;23;20536;-81
2023/06/22 15:18:29;;;;;;;1.80;1.70;;;28.30;36.90;;;;;;12626639;23;20174;-80
2023/06/22 15:23:50;;;;;;;1.40;1.30;;;28.20;26.60;;;;;;12606390;23;20477;-80
2023/06/22 15:29:11;;;;;;;16.83;2.58;;;28.10;61.80;;;;;;12626622;23;20264;-80
2023/06/22 15:34:32;;;;;;;2.20;1.50;;;27.90;99.90;;;;;;12627917;23;20163;-80
2023/06/22 15:39:55;;;;;;;2.72;1.45;;;27.80;99.90;;;;;;12626876;23;20175;-80
2023/06/22 15:45:17;;;;;;;2.78;1.65;;;27.70;99.90;;;;;;12606287;23;20175;-80
2023/06/22 15:50:38;;;;;;;2.45;2.13;;;27.60;99.90;;;;;;12627073;23;20202;-82
2023/06/22 15:56:00;;;;;;;2.53;1.92;;;27.50;15.60;;;;;;12626807;23;20198;-81
2023/06/22 16:01:21;;;;;;;1.77;1.35;;;27.50;44.80;;;;;;12606393;23;20265;-82
2023/06/22 16:06:42;;;;;;;1.63;1.50;;;27.40;99.90;;;;;;12627937;23;20516;-78
2023/06/22 16:12:05;;;;;;;1.52;1.42;;;27.40;99.90;;;;;;12627575;23;20190;-78
2023/06/22 16:17:26;;;;;;;4.80;1.55;;;27.30;99.90;;;;;;12626337;23;20281;-79
2023/06/22 16:22:48;;;;;;;2.72;1.70;;;27.30;99.90;;;;;;12627049;23;20170;-79
2023/06/22 16:28:09;;;;;;;2.53;1.80;;;27.20;99.90;;;;;;12626820;23;20271;-80
2023/06/22 16:33:30;;;;;;;3.25;1.63;;;27.10;99.90;;;;;;12625556;23;20177;-78
2023/06/22 16:38:51;;;;;;;1.38;1.27;;;27.00;99.90;;;;;;12625147;23;20167;-80
2023/06/22 16:44:13;;;;;;;2.67;1.67;;;26.90;99.90;;;;;;12623697;23;20171;-78
2023/06/22 16:49:38;;;;;;;2.17;1.58;;;26.80;99.90;;;;;;12626587;23;20197;-81
2023/06/22 16:55:00;;;;;;;2.85;1.45;;;26.80;99.90;;;;;;12628683;23;20167;-81
2023/06/22 17:00:22;;;;;;;3.58;1.95;;;26.80;99.90;;;;;;12626734;23;20446;-78
2023/06/22 17:05:45;;;;;;;2.53;1.70;;;;;;;;;;12627783;23;20163;-78
2023/06/22 17:11:08;;;;;;;3.15;1.67;;;26.60;99.90;;;;;;12627327;23;20297;-80
2023/06/22 17:16:33;;;;;;;1.70;1.60;;;;;;;;;;12626235;23;20175;-79
2023/06/22 17:21:54;;;;;;;2.67;2.00;;;;;;;;;;12626614;23;20421;-77
2023/06/22 17:27:26;;;;;;;2.17;1.98;;;;;;;;;;12627096;23;20171;-79
2023/06/22 17:32:49;;;;;;;2.75;1.65;;;;;;;;;;12626856;23;20403;-79
2023/06/22 17:38:17;;;;;;;2.13;1.88;;;;;;;;;;12627075;23;20246;-79
2023/06/22 17:43:48;;;;;;;2.05;1.83;;;;;;;;;;12627503;23;20212;-79
2023/06/22 17:49:10;;;;;;;2.90;2.15;;;;;;;;;;12626670;23;20206;-79
2023/06/22 17:54:32;;;;;;;2.03;1.65;;;;;;;;;;12629476;23;20167;-79
2023/06/22 17:59:57;;;;;;;2.58;1.80;;;;;;;;;;12629714;23;20244;-79
2023/06/22 18:05:28;;;;;;;4.70;2.20;;;;;;;;;;12627908;23;20491;-80
2023/06/22 18:10:50;;;;;;;3.42;2.50;;;;;;;;;;12628191;23;20191;-82
2023/06/22 18:16:12;;;;;;;3.45;2.50;;;25.10;1.00;;;;;;12628332;23;20171;-80
2023/06/22 18:21:34;;;;;;;3.03;1.90;;;;;;;;;;12629023;23;20190;-80
2023/06/22 18:26:56;;;;;;;3.15;1.90;;;;;;;;;;12628432;23;20186;-81
2023/06/22 18:32:18;;;;;;;3.20;1.80;;;;;;;;;;12607964;23;20395;-80
2023/06/22 18:37:41;;;;;;;2.15;1.67;;;24.90;95.30;;;;;;12607676;23;20216;-80
2023/06/22 18:43:02;;;;;;;2.28;2.00;;;;;;;;;;12628469;23;20194;-79
2023/06/22 18:48:24;;;;;;;4.53;2.40;;;24.50;99.90;;;;;;12628104;23;20182;-80
2023/06/22 18:54:02;;;;;;;5.15;3.28;;;24.40;99.90;;;;;;12628787;23;20388;-80
2023/06/22 18:59:42;;;;;;;5.82;4.05;;;24.20;99.90;;;;;;12627903;23;20195;-79
2023/06/22 19:05:08;;;;;;;5.47;3.97;;;;;;;;;;12627267;23;20230;-80
2023/06/22 19:10:38;;;;;;;8.23;5.40;;;;;;;;;;12628481;23;20566;-81
2023/06/22 19:16:01;;;;;;;7.85;5.85;;;;;;;;;;12628647;23;20380;-80
2023/06/22 19:21:23;;;;;;;6.75;4.47;;;;;;;;;;12607179;23;20174;-79
2023/06/22 19:26:51;;;;;;;7.72;5.07;;;;;;;;;;12608112;23;20166;-79
2023/06/22 19:32:13;;;;;;;9.02;5.55;;;;;;;;;;12628153;23;20214;-80
2023/06/22 19:37:40;;;;;;;10.07;5.78;;;23.30;99.90;;;;;;12626523;23;20408;-80
2023/06/22 19:43:01;;;;;;;10.80;5.82;;;23.30;99.90;;;;;;12627425;23;20198;-80
2023/06/22 19:48:30;;;;;;;8.07;5.13;;;23.10;99.90;;;;;;12627194;23;20205;-81
2023/06/22 19:53:52;;;;;;;7.18;4.38;;;22.90;99.90;;;;;;12625584;23;20235;-82
2023/06/22 19:59:20;;;;;;;5.95;3.83;;;22.60;99.90;;;;;;12627657;23;20198;-81
2023/06/22 20:04:42;;;;;;;5.57;3.53;;;22.50;99.90;;;;;;12628902;23;20170;-81
2023/06/22 20:10:19;;;;;;;6.85;3.28;;;22.40;99.90;;;;;;12626701;23;20240;-81
2023/06/22 20:15:47;;;;;;;5.97;3.35;;;22.40;99.90;;;;;;12627271;23;20167;-82
2023/06/22 20:21:12;;;;;;;7.03;3.72;;;;;;;;;;12605420;23;20170;-80
2023/06/22 20:26:42;;;;;;;10.55;6.60;;;22.10;99.90;;;;;;12628074;23;20192;-80
2023/06/22 20:32:14;;;;;;;12.43;6.78;;;22.00;99.90;;;;;;12628605;23;20191;-81
2023/06/22 20:37:35;;;;;;;17.55;9.57;;;21.80;99.90;;;;;;12606598;23;20171;-80
2023/06/22 20:42:58;;;;;;;11.90;7.18;;;21.70;99.90;;;;;;12627192;23;20167;-81
2023/06/22 20:48:21;;;;;;;9.68;6.03;;;21.60;99.90;;;;;;12626803;23;20392;-80
2023/06/22 20:53:49;;;;;;;13.02;7.45;;;21.60;99.90;;;;;;12628130;23;20225;-80
2023/06/22 20:59:11;;;;;;;20.05;9.30;;;21.40;99.90;;;;;;12626346;23;20186;-82
2023/06/22 21:04:32;;;;;;;17.52;9.50;;;21.30;99.90;;;;;;12602812;23;20175;-80
2023/06/22 21:09:55;;;;;;;12.48;8.25;;;21.20;99.90;;;;;;12623795;23;20521;-80
2023/06/22 21:15:16;;;;;;;10.40;6.32;;;21.20;99.90;;;;;;12623772;23;20336;-79
2023/06/22 21:20:37;;;;;;;10.25;6.15;;;21.10;99.90;;;;;;12623419;23;20173;-80
2023/06/22 21:25:58;;;;;;;8.75;5.60;;;20.90;99.90;;;;;;12625145;23;20400;-81
2023/06/22 21:31:20;;;;;;;13.73;5.93;;;20.80;99.90;;;;;;12628832;23;20239;-81
2023/06/22 21:36:41;;;;;;;11.63;4.82;;;20.70;99.90;;;;;;12630119;23;20170;-81
2023/06/22 21:42:02;;;;;;;6.93;4.53;;;20.50;99.90;;;;;;12608880;23;20197;-80
2023/06/22 21:53:08;;;;;;;6.97;4.72;;;20.40;99.90;;;;;;12629018;23;20202;-80
2023/06/22 22:06:39;;;;;;;9.73;5.68;;;20.10;99.90;;;;;;10514308;28;20945;-80
2023/06/22 22:12:00;;;;;;;7.28;5.07;;;20.00;99.90;;;;;;10489363;28;20435;-79
2023/06/22 22:17:22;;;;;;;9.02;5.38;;;20.00;99.90;;;;;;10472393;28;20383;-80
2023/06/22 22:22:43;;;;;;;9.15;5.57;;;19.90;99.90;;;;;;10474365;28;20450;-79
2023/06/22 22:28:04;;;;;;;11.25;6.72;;;19.90;1.00;;;;;;10489506;28;20278;-81
2023/06/22 22:33:26;;;;;;;10.63;6.20;;;19.90;1.00;;;;;;10509163;28;20203;-78
2023/06/22 22:38:48;;;;;;;9.15;6.10;;;19.80;1.00;;;;;;10497617;28;20205;-80
2023/06/22 22:44:09;;;;;;;15.23;5.85;;;19.70;1.00;;;;;;10500271;28;20254;-80
2023/06/22 22:49:30;;;;;;;10.80;5.97;;;19.60;1.00;;;;;;10503118;28;20506;-80
2023/06/22 22:54:51;;;;;;;11.32;6.13;;;19.50;1.00;;;;;;10497057;28;20206;-80
2023/06/22 23:00:13;;;;;;;11.85;6.82;;;19.40;1.00;;;;;;10473175;28;20486;-79
2023/06/22 23:05:35;;;;;;;16.27;8.45;;;19.30;1.00;;;;;;10487584;28;20271;-80
2023/06/22 23:10:56;;;;;;;18.73;8.27;;;19.20;1.00;;;;;;10469223;28;20196;-79
2023/06/22 23:16:17;;;;;;;15.02;7.22;;;19.10;1.00;;;;;;10445954;28;20218;-79
2023/06/22 23:21:38;;;;;;;9.73;5.63;;;18.90;9.90;;;;;;10441447;28;20405;-81
2023/06/22 23:27:00;;;;;;;10.07;5.60;;;18.70;99.90;;;;;;10450757;28;20216;-81
2023/06/22 23:32:20;;;;;;;12.60;5.97;;;18.70;99.90;;;;;;10483173;28;20187;-80
2023/06/22 23:37:42;;;;;;;10.63;5.80;;;18.60;99.90;;;;;;10477573;28;20245;-80
2023/06/22 23:43:03;;;;;;;9.18;5.35;;;18.60;99.90;;;;;;10479412;28;20223;-79
2023/06/22 23:48:25;;;;;;;9.13;5.00;;;18.60;99.90;;;;;;10440085;28;20202;-78
2023/06/22 23:53:46;;;;;;;7.90;4.93;;;18.60;99.90;;;;;;10440852;28;20204;-80
2023/06/22 23:59:08;;;;;;;8.77;5.28;;;18.60;99.90;;;;;;10444341;28;20211;-80
